createdAt,value
2017-12-29T00:00:47.325Z,997.57
2017-12-29T00:01:47.319Z,997.56
2017-12-29T00:02:47.304Z,997.52
2017-12-29T00:03:47.294Z,997.53
2017-12-29T00:04:47.281Z,997.55
2017-12-29T00:05:47.270Z,997.64
2017-12-29T00:06:47.257Z,997.64
2017-12-29T00:07:47.240Z,997.62
2017-12-29T00:08:47.237Z,997.66
2017-12-29T00:09:47.224Z,997.68
2017-12-29T00:10:47.210Z,997.66
2017-12-29T00:11:47.200Z,997.71
2017-12-29T00:12:47.185Z,997.69
2017-12-29T00:13:47.174Z,997.70
2017-12-29T00:14:47.161Z,997.73
2017-12-29T00:15:47.150Z,997.78
2017-12-29T00:16:47.137Z,997.76
2017-12-29T00:17:47.127Z,997.79
2017-12-29T00:18:47.114Z,997.79
2017-12-29T00:19:47.103Z,997.79
2017-12-29T00:20:47.093Z,997.76
2017-12-29T00:21:47.077Z,997.78
2017-12-29T00:22:47.067Z,997.79
2017-12-29T00:23:47.062Z,997.83
2017-12-29T00:24:47.060Z,997.81
2017-12-29T00:25:47.055Z,997.81
2017-12-29T00:26:47.021Z,997.83
2017-12-29T00:27:47.007Z,997.81
2017-12-29T00:28:46.999Z,997.81
2017-12-29T00:29:46.996Z,997.84
2017-12-29T00:30:46.978Z,997.83
2017-12-29T00:31:46.965Z,997.80
2017-12-29T00:32:46.952Z,997.91
2017-12-29T00:33:46.937Z,997.85
2017-12-29T00:34:46.923Z,997.88
2017-12-29T00:35:46.916Z,997.98
2017-12-29T00:36:46.905Z,997.89
2017-12-29T00:37:46.898Z,997.91
2017-12-29T00:38:46.878Z,997.94
2017-12-29T00:39:46.864Z,997.92
2017-12-29T00:40:46.857Z,997.91
2017-12-29T00:41:46.845Z,997.91
2017-12-29T00:42:46.829Z,997.96
2017-12-29T00:43:46.820Z,997.94
2017-12-29T00:44:46.806Z,998.00
2017-12-29T00:45:46.797Z,997.93
2017-12-29T00:46:46.790Z,997.97
2017-12-29T00:47:46.773Z,998.00
2017-12-29T00:48:46.768Z,998.01
2017-12-29T00:49:46.748Z,998.05
2017-12-29T00:50:46.735Z,998.02
2017-12-29T00:51:46.726Z,998.12
2017-12-29T00:52:46.711Z,998.09
2017-12-29T00:53:46.700Z,998.04
2017-12-29T00:54:46.690Z,998.03
2017-12-29T00:55:46.678Z,998.09
2017-12-29T00:56:46.665Z,998.13
2017-12-29T00:57:46.652Z,998.13
2017-12-29T00:58:46.640Z,998.13
2017-12-29T00:59:46.623Z,998.09
2017-12-29T01:00:46.620Z,998.16
2017-12-29T01:01:46.606Z,998.09
2017-12-29T01:02:46.588Z,998.14
2017-12-29T01:03:46.579Z,998.19
2017-12-29T01:04:46.570Z,998.13
2017-12-29T01:05:46.557Z,998.15
2017-12-29T01:06:46.540Z,998.25
2017-12-29T01:07:46.533Z,998.20
2017-12-29T01:08:46.542Z,998.21
2017-12-29T01:09:46.511Z,998.21
2017-12-29T01:10:46.495Z,998.21
2017-12-29T01:11:46.484Z,998.20
2017-12-29T01:12:46.471Z,998.23
2017-12-29T01:13:46.461Z,998.22
2017-12-29T01:14:46.447Z,998.22
2017-12-29T01:15:46.442Z,998.23
2017-12-29T01:16:46.432Z,998.32
2017-12-29T01:17:46.411Z,998.27
2017-12-29T01:18:46.396Z,998.26
2017-12-29T01:19:46.387Z,998.24
2017-12-29T01:20:46.375Z,998.21
2017-12-29T01:21:46.364Z,998.26
2017-12-29T01:22:46.355Z,998.24
2017-12-29T01:23:46.358Z,998.29
2017-12-29T01:24:46.325Z,998.25
2017-12-29T01:25:46.312Z,998.26
2017-12-29T01:26:46.307Z,998.29
2017-12-29T01:27:46.292Z,998.31
2017-12-29T01:28:46.282Z,998.28
2017-12-29T01:29:46.268Z,998.32
2017-12-29T01:30:46.254Z,998.34
2017-12-29T01:31:46.246Z,998.30
2017-12-29T01:32:46.231Z,998.33
2017-12-29T01:33:46.226Z,998.29
2017-12-29T01:34:46.207Z,998.29
2017-12-29T01:35:46.196Z,998.28
2017-12-29T01:36:52.990Z,998.23
2017-12-29T01:37:46.175Z,998.38
2017-12-29T01:38:46.169Z,998.27
2017-12-29T01:39:46.172Z,998.38
2017-12-29T01:40:46.133Z,998.40
2017-12-29T01:41:46.127Z,998.41
2017-12-29T01:42:46.112Z,998.36
2017-12-29T01:43:46.100Z,998.34
2017-12-29T01:44:46.085Z,998.37
2017-12-29T01:45:46.075Z,998.34
2017-12-29T01:46:46.065Z,998.32
2017-12-29T01:47:46.047Z,998.32
2017-12-29T01:48:46.041Z,998.31
2017-12-29T01:49:46.027Z,998.34
2017-12-29T01:50:46.020Z,998.31
2017-12-29T01:51:46.003Z,998.34
2017-12-29T01:52:45.990Z,998.30
2017-12-29T01:53:45.980Z,998.29
2017-12-29T01:54:45.964Z,998.27
2017-12-29T01:55:45.954Z,998.26
2017-12-29T01:56:45.947Z,998.30
2017-12-29T01:57:45.934Z,998.27
2017-12-29T01:58:45.916Z,998.22
2017-12-29T01:59:45.906Z,998.27
2017-12-29T02:00:45.895Z,998.25
2017-12-29T02:01:45.880Z,998.24
2017-12-29T02:02:45.873Z,998.25
2017-12-29T02:03:45.857Z,998.28
2017-12-29T02:04:45.844Z,998.30
2017-12-29T02:05:45.870Z,998.26
2017-12-29T02:06:45.821Z,998.29
2017-12-29T02:07:45.805Z,998.26
2017-12-29T02:08:45.791Z,998.27
2017-12-29T02:09:45.783Z,998.17
2017-12-29T02:10:45.771Z,998.25
2017-12-29T02:11:45.759Z,998.25
2017-12-29T02:12:45.747Z,998.29
2017-12-29T02:13:45.735Z,998.31
2017-12-29T02:14:45.725Z,998.25
2017-12-29T02:15:45.706Z,998.25
2017-12-29T02:16:45.694Z,998.21
2017-12-29T02:17:45.684Z,998.29
2017-12-29T02:18:45.670Z,998.32
2017-12-29T02:19:45.656Z,998.28
2017-12-29T02:20:45.652Z,998.28
2017-12-29T02:21:45.636Z,998.30
2017-12-29T02:22:45.620Z,998.32
2017-12-29T02:23:45.608Z,998.39
2017-12-29T02:24:45.597Z,998.31
2017-12-29T02:25:45.584Z,998.35
2017-12-29T02:26:45.573Z,998.36
2017-12-29T02:27:45.619Z,998.39
2017-12-29T02:28:45.547Z,998.42
2017-12-29T02:29:45.534Z,998.41
2017-12-29T02:30:45.519Z,998.37
2017-12-29T02:31:45.509Z,998.42
2017-12-29T02:32:45.493Z,998.41
2017-12-29T02:33:45.484Z,998.41
2017-12-29T02:34:45.470Z,998.42
2017-12-29T02:35:45.460Z,998.44
2017-12-29T02:36:45.448Z,998.45
2017-12-29T02:37:45.431Z,998.41
2017-12-29T02:38:45.423Z,998.41
2017-12-29T02:39:45.406Z,998.43
2017-12-29T02:40:45.395Z,998.37
2017-12-29T02:41:45.385Z,998.49
2017-12-29T02:42:45.370Z,998.28
2017-12-29T02:43:45.357Z,998.46
2017-12-29T02:44:45.345Z,998.44
2017-12-29T02:45:45.329Z,998.45
2017-12-29T02:46:45.319Z,998.49
2017-12-29T02:47:45.308Z,998.51
2017-12-29T02:48:45.296Z,998.48
2017-12-29T02:49:45.283Z,998.47
2017-12-29T02:50:45.268Z,998.50
2017-12-29T02:51:45.256Z,998.49
2017-12-29T02:52:45.243Z,998.51
2017-12-29T02:53:45.231Z,998.45
2017-12-29T02:54:45.217Z,998.48
2017-12-29T02:55:45.210Z,998.46
2017-12-29T02:56:45.190Z,998.47
2017-12-29T02:57:45.181Z,998.43
2017-12-29T02:58:45.161Z,998.46
2017-12-29T02:59:45.154Z,998.47
2017-12-29T03:00:45.142Z,998.50
2017-12-29T03:01:45.129Z,998.46
2017-12-29T03:02:45.116Z,998.51
2017-12-29T03:03:45.107Z,998.47
2017-12-29T03:04:45.096Z,998.46
2017-12-29T03:05:45.078Z,998.44
2017-12-29T03:06:45.064Z,998.44
2017-12-29T03:07:45.054Z,998.46
2017-12-29T03:08:45.043Z,998.51
2017-12-29T03:09:45.027Z,998.46
2017-12-29T03:10:45.015Z,998.47
2017-12-29T03:11:45.004Z,998.52
2017-12-29T03:12:44.988Z,998.50
2017-12-29T03:13:44.982Z,998.49
2017-12-29T03:14:44.962Z,998.48
2017-12-29T03:15:44.953Z,998.43
2017-12-29T03:16:44.934Z,998.47
2017-12-29T03:17:44.924Z,998.55
2017-12-29T03:18:44.913Z,998.53
2017-12-29T03:19:44.908Z,998.51
2017-12-29T03:20:44.882Z,998.54
2017-12-29T03:21:44.879Z,998.46
2017-12-29T03:22:44.859Z,998.50
2017-12-29T03:23:44.847Z,998.51
2017-12-29T03:24:44.837Z,998.49
2017-12-29T03:25:44.820Z,998.52
2017-12-29T03:26:44.807Z,998.49
2017-12-29T03:27:44.795Z,998.50
2017-12-29T03:28:44.782Z,998.55
2017-12-29T03:29:44.788Z,998.55
2017-12-29T03:30:44.755Z,998.53
2017-12-29T03:31:44.747Z,998.52
2017-12-29T03:32:44.732Z,998.52
2017-12-29T03:33:44.717Z,998.47
2017-12-29T03:34:44.703Z,998.51
2017-12-29T03:35:44.691Z,998.44
2017-12-29T03:36:44.680Z,998.50
2017-12-29T03:37:44.667Z,998.51
2017-12-29T03:38:44.658Z,998.49
2017-12-29T03:39:44.640Z,998.43
2017-12-29T03:40:44.629Z,998.51
2017-12-29T03:41:44.610Z,998.49
2017-12-29T03:42:44.606Z,998.48
2017-12-29T03:43:44.590Z,998.42
2017-12-29T03:44:44.578Z,998.40
2017-12-29T03:45:44.560Z,998.39
2017-12-29T03:46:44.548Z,998.41
2017-12-29T03:47:44.536Z,998.37
2017-12-29T03:48:44.531Z,998.38
2017-12-29T03:49:44.509Z,998.33
2017-12-29T03:50:44.494Z,998.32
2017-12-29T03:51:44.486Z,998.29
2017-12-29T03:52:44.473Z,998.34
2017-12-29T03:53:44.461Z,998.38
2017-12-29T03:54:44.446Z,998.39
2017-12-29T03:55:44.434Z,998.31
2017-12-29T03:56:44.420Z,998.36
2017-12-29T03:57:44.417Z,998.32
2017-12-29T03:58:44.388Z,998.31
2017-12-29T03:59:44.382Z,998.29
2017-12-29T04:00:44.369Z,998.27
2017-12-29T04:01:44.354Z,998.27
2017-12-29T04:02:44.345Z,998.13
2017-12-29T04:03:44.333Z,998.24
2017-12-29T04:04:44.318Z,998.29
2017-12-29T04:05:44.303Z,998.31
2017-12-29T04:06:44.291Z,998.28
2017-12-29T04:07:44.276Z,998.27
2017-12-29T04:08:44.265Z,998.32
2017-12-29T04:09:44.253Z,998.27
2017-12-29T04:10:44.238Z,998.28
2017-12-29T04:11:44.227Z,998.30
2017-12-29T04:12:44.221Z,998.31
2017-12-29T04:13:44.202Z,998.26
2017-12-29T04:14:44.186Z,998.24
2017-12-29T04:15:44.170Z,998.23
2017-12-29T04:16:44.163Z,998.22
2017-12-29T04:17:44.183Z,998.23
2017-12-29T04:18:44.138Z,998.27
2017-12-29T04:19:44.123Z,998.22
2017-12-29T04:20:44.109Z,998.26
2017-12-29T04:21:44.099Z,998.32
2017-12-29T04:22:44.084Z,998.33
2017-12-29T04:23:44.071Z,998.32
2017-12-29T04:24:44.057Z,998.34
2017-12-29T04:25:44.045Z,998.35
2017-12-29T04:26:44.032Z,998.33
2017-12-29T04:27:44.019Z,998.31
2017-12-29T04:28:44.005Z,998.33
2017-12-29T04:29:43.998Z,998.37
2017-12-29T04:30:43.979Z,998.38
2017-12-29T04:31:43.962Z,998.34
2017-12-29T04:32:43.952Z,998.35
2017-12-29T04:33:43.940Z,998.34
2017-12-29T04:34:43.926Z,998.35
2017-12-29T04:35:43.918Z,998.27
2017-12-29T04:36:43.902Z,998.34
2017-12-29T04:37:43.888Z,998.39
2017-12-29T04:38:43.885Z,998.35
2017-12-29T04:39:43.859Z,998.36
2017-12-29T04:40:43.849Z,998.35
2017-12-29T04:41:43.837Z,998.42
2017-12-29T04:42:43.822Z,998.34
2017-12-29T04:43:43.807Z,998.35
2017-12-29T04:44:43.796Z,998.38
2017-12-29T04:45:43.782Z,998.34
2017-12-29T04:46:43.770Z,998.30
2017-12-29T04:47:43.755Z,998.35
2017-12-29T04:48:43.749Z,998.37
2017-12-29T04:49:43.730Z,998.42
2017-12-29T04:50:43.722Z,998.45
2017-12-29T04:51:43.713Z,998.44
2017-12-29T04:52:43.698Z,998.48
2017-12-29T04:53:43.680Z,998.56
2017-12-29T04:54:43.664Z,998.50
2017-12-29T04:55:43.653Z,998.53
2017-12-29T04:56:43.639Z,998.58
2017-12-29T04:57:43.628Z,998.58
2017-12-29T04:58:43.610Z,998.61
2017-12-29T04:59:43.599Z,998.64
2017-12-29T05:00:43.586Z,998.61
2017-12-29T05:01:43.574Z,998.65
2017-12-29T05:02:43.557Z,998.64
2017-12-29T05:03:43.549Z,998.60
2017-12-29T05:04:43.539Z,998.60
2017-12-29T05:05:43.524Z,998.60
2017-12-29T05:06:43.509Z,998.66
2017-12-29T05:07:43.493Z,998.65
2017-12-29T05:08:43.481Z,998.66
2017-12-29T05:09:43.470Z,998.68
2017-12-29T05:10:43.457Z,998.67
2017-12-29T05:11:43.445Z,998.63
2017-12-29T05:12:43.431Z,998.72
2017-12-29T05:13:43.420Z,998.69
2017-12-29T05:14:43.400Z,998.67
2017-12-29T05:15:43.395Z,998.69
2017-12-29T05:16:43.379Z,998.71
2017-12-29T05:17:43.366Z,998.75
2017-12-29T05:18:43.349Z,998.72
2017-12-29T05:19:43.340Z,998.76
2017-12-29T05:20:43.325Z,998.76
2017-12-29T05:21:43.343Z,998.76
2017-12-29T05:22:43.300Z,998.79
2017-12-29T05:23:43.287Z,998.76
2017-12-29T05:24:43.273Z,998.78
2017-12-29T05:25:43.261Z,998.81
2017-12-29T05:26:43.246Z,998.82
2017-12-29T05:27:43.234Z,998.76
2017-12-29T05:28:43.220Z,998.75
2017-12-29T05:29:43.206Z,998.74
2017-12-29T05:30:43.198Z,998.74
2017-12-29T05:31:43.181Z,998.78
2017-12-29T05:32:43.170Z,998.75
2017-12-29T05:33:43.156Z,998.81
2017-12-29T05:34:43.158Z,998.76
2017-12-29T05:35:43.127Z,998.76
2017-12-29T05:36:43.112Z,998.76
2017-12-29T05:37:43.103Z,998.81
2017-12-29T05:38:43.095Z,998.81
2017-12-29T05:39:43.075Z,998.79
2017-12-29T05:40:43.062Z,998.81
2017-12-29T05:41:43.053Z,998.79
2017-12-29T05:42:43.036Z,998.81
2017-12-29T05:43:43.021Z,998.77
2017-12-29T05:44:43.010Z,998.84
2017-12-29T05:45:42.998Z,998.81
2017-12-29T05:46:42.982Z,998.81
2017-12-29T05:47:42.971Z,998.78
2017-12-29T05:48:42.964Z,998.82
2017-12-29T05:49:42.945Z,998.87
2017-12-29T05:50:42.930Z,998.89
2017-12-29T05:51:42.917Z,998.89
2017-12-29T05:52:42.906Z,998.89
2017-12-29T05:53:42.897Z,998.89
2017-12-29T05:54:42.879Z,998.87
2017-12-29T05:55:42.863Z,998.94
2017-12-29T05:56:42.850Z,998.92
2017-12-29T05:57:42.837Z,998.93
2017-12-29T05:58:42.826Z,998.94
2017-12-29T05:59:42.815Z,998.90
2017-12-29T06:00:42.800Z,998.88
2017-12-29T06:01:42.787Z,998.92
2017-12-29T06:02:42.785Z,998.92
2017-12-29T06:03:42.783Z,998.87
2017-12-29T06:04:42.745Z,998.90
2017-12-29T06:05:42.732Z,998.90
2017-12-29T06:06:42.719Z,998.93
2017-12-29T06:07:42.704Z,998.93
2017-12-29T06:08:42.689Z,998.95
2017-12-29T06:09:42.682Z,998.94
2017-12-29T06:10:42.664Z,998.92
2017-12-29T06:11:42.654Z,998.91
2017-12-29T06:12:42.635Z,998.90
2017-12-29T06:13:42.628Z,998.93
2017-12-29T06:14:42.618Z,998.97
2017-12-29T06:15:42.601Z,998.89
2017-12-29T06:16:42.586Z,998.94
2017-12-29T06:17:42.596Z,998.97
2017-12-29T06:18:42.561Z,998.93
2017-12-29T06:19:42.548Z,998.92
2017-12-29T06:20:42.539Z,998.96
2017-12-29T06:21:42.519Z,999.02
2017-12-29T06:22:42.506Z,999.02
2017-12-29T06:23:42.493Z,999.02
2017-12-29T06:24:42.481Z,999.06
2017-12-29T06:25:42.468Z,999.01
2017-12-29T06:26:42.450Z,999.03
2017-12-29T06:27:42.439Z,998.99
2017-12-29T06:28:42.427Z,999.05
2017-12-29T06:29:42.415Z,999.05
2017-12-29T06:30:42.400Z,999.08
2017-12-29T06:31:42.387Z,999.06
2017-12-29T06:32:42.372Z,999.11
2017-12-29T06:33:42.362Z,999.18
2017-12-29T06:34:42.347Z,999.14
2017-12-29T06:35:42.330Z,999.11
2017-12-29T06:36:42.320Z,999.12
2017-12-29T06:37:42.331Z,999.13
2017-12-29T06:38:42.293Z,999.13
2017-12-29T06:39:42.279Z,999.09
2017-12-29T06:40:42.278Z,999.10
2017-12-29T06:41:42.254Z,999.07
2017-12-29T06:42:42.242Z,998.96
2017-12-29T06:43:42.227Z,999.06
2017-12-29T06:44:42.214Z,999.11
2017-12-29T06:45:42.200Z,999.07
2017-12-29T06:46:42.185Z,999.13
2017-12-29T06:47:42.170Z,999.11
2017-12-29T06:48:42.160Z,999.10
2017-12-29T06:49:42.146Z,999.08
2017-12-29T06:50:42.143Z,999.10
2017-12-29T06:51:42.126Z,999.09
2017-12-29T06:52:42.106Z,999.07
2017-12-29T06:53:42.092Z,999.12
2017-12-29T06:54:42.075Z,999.10
2017-12-29T06:55:42.065Z,999.15
2017-12-29T06:56:42.050Z,999.15
2017-12-29T06:57:42.044Z,999.13
2017-12-29T06:58:42.022Z,999.14
2017-12-29T06:59:42.012Z,999.20
2017-12-29T07:00:41.999Z,999.16
2017-12-29T07:01:41.986Z,999.14
2017-12-29T07:02:41.971Z,999.13
2017-12-29T07:03:41.960Z,999.11
2017-12-29T07:04:41.946Z,999.21
2017-12-29T07:05:41.934Z,999.15
2017-12-29T07:06:41.921Z,999.09
2017-12-29T07:07:41.905Z,999.10
2017-12-29T07:08:41.898Z,999.11
2017-12-29T07:09:41.874Z,999.10
2017-12-29T07:10:41.861Z,999.15
2017-12-29T07:11:41.851Z,999.12
2017-12-29T07:12:41.838Z,999.13
2017-12-29T07:13:41.825Z,999.16
2017-12-29T07:14:41.811Z,999.21
2017-12-29T07:15:41.796Z,999.20
2017-12-29T07:16:41.779Z,999.22
2017-12-29T07:17:41.771Z,999.14
2017-12-29T07:18:41.756Z,999.15
2017-12-29T07:19:41.744Z,999.17
2017-12-29T07:20:41.728Z,999.11
2017-12-29T07:21:41.716Z,999.09
2017-12-29T07:22:41.702Z,999.14
2017-12-29T07:23:41.685Z,999.16
2017-12-29T07:24:41.679Z,999.12
2017-12-29T07:25:41.662Z,999.15
2017-12-29T07:26:41.648Z,999.13
2017-12-29T07:27:41.633Z,999.14
2017-12-29T07:28:41.623Z,999.12
2017-12-29T07:29:41.610Z,999.13
2017-12-29T07:30:41.592Z,999.09
2017-12-29T07:31:41.583Z,999.13
2017-12-29T07:32:41.570Z,999.06
2017-12-29T07:33:41.555Z,999.06
2017-12-29T07:34:41.540Z,999.05
2017-12-29T07:35:41.532Z,999.03
2017-12-29T07:36:41.511Z,999.03
2017-12-29T07:37:41.500Z,999.03
2017-12-29T07:38:41.487Z,999.01
2017-12-29T07:39:41.472Z,999.00
2017-12-29T07:40:41.475Z,999.01
2017-12-29T07:41:41.446Z,999.03
2017-12-29T07:42:41.432Z,999.02
2017-12-29T07:43:41.421Z,998.97
2017-12-29T07:44:41.406Z,998.99
2017-12-29T07:45:41.397Z,999.00
2017-12-29T07:46:41.380Z,999.04
2017-12-29T07:47:41.365Z,999.04
2017-12-29T07:48:41.354Z,999.04
2017-12-29T07:49:41.334Z,999.00
2017-12-29T07:50:41.327Z,998.97
2017-12-29T07:51:41.327Z,999.00
2017-12-29T07:52:41.294Z,999.02
2017-12-29T07:53:41.285Z,998.99
2017-12-29T07:54:41.268Z,998.99
2017-12-29T07:55:41.257Z,998.99
2017-12-29T07:56:41.244Z,998.98
2017-12-29T07:57:41.233Z,999.01
2017-12-29T07:58:41.217Z,999.02
2017-12-29T07:59:41.245Z,998.99
2017-12-29T08:00:41.190Z,998.98
2017-12-29T08:01:41.178Z,999.04
2017-12-29T08:02:41.214Z,999.01
2017-12-29T08:03:41.150Z,999.04
2017-12-29T08:04:41.140Z,998.99
2017-12-29T08:05:41.124Z,998.99
2017-12-29T08:06:41.106Z,999.03
2017-12-29T08:07:41.097Z,999.01
2017-12-29T08:08:41.082Z,999.05
2017-12-29T08:09:41.070Z,999.02
2017-12-29T08:10:41.056Z,998.99
2017-12-29T08:11:41.043Z,999.00
2017-12-29T08:12:41.031Z,998.95
2017-12-29T08:13:41.013Z,998.98
2017-12-29T08:14:41.004Z,998.99
2017-12-29T08:15:40.991Z,998.96
2017-12-29T08:16:40.978Z,999.05
2017-12-29T08:17:40.964Z,999.04
2017-12-29T08:18:40.951Z,999.03
2017-12-29T08:19:40.936Z,999.01
2017-12-29T08:20:40.922Z,998.98
2017-12-29T08:21:40.912Z,999.01
2017-12-29T08:22:40.898Z,998.99
2017-12-29T08:23:40.888Z,998.99
2017-12-29T08:24:40.873Z,999.01
2017-12-29T08:25:40.861Z,999.04
2017-12-29T08:26:40.846Z,998.96
2017-12-29T08:27:40.832Z,999.00
2017-12-29T08:28:40.819Z,998.95
2017-12-29T08:29:40.807Z,998.91
2017-12-29T08:30:40.795Z,998.93
2017-12-29T08:31:40.787Z,998.90
2017-12-29T08:32:40.771Z,998.80
2017-12-29T08:33:40.758Z,998.86
2017-12-29T08:34:40.740Z,998.84
2017-12-29T08:35:40.732Z,998.88
2017-12-29T08:36:40.719Z,998.87
2017-12-29T08:37:40.709Z,998.86
2017-12-29T08:38:40.698Z,998.87
2017-12-29T08:39:40.688Z,998.89
2017-12-29T08:40:40.673Z,998.88
2017-12-29T08:41:40.654Z,998.87
2017-12-29T08:42:40.648Z,998.87
2017-12-29T08:43:40.635Z,998.85
2017-12-29T08:44:40.625Z,998.84
2017-12-29T08:45:40.616Z,998.79
2017-12-29T08:46:40.599Z,998.78
2017-12-29T08:47:40.587Z,998.77
2017-12-29T08:48:40.574Z,998.73
2017-12-29T08:49:40.562Z,998.78
2017-12-29T08:50:40.550Z,998.81
2017-12-29T08:51:40.540Z,998.75
2017-12-29T08:52:40.530Z,998.79
2017-12-29T08:53:40.518Z,998.76
2017-12-29T08:54:40.507Z,998.82
2017-12-29T08:55:40.497Z,998.81
2017-12-29T08:56:40.487Z,998.82
2017-12-29T08:57:40.476Z,998.77
2017-12-29T08:58:40.464Z,998.79
2017-12-29T08:59:40.454Z,998.78
2017-12-29T09:00:40.445Z,998.80
2017-12-29T09:01:40.435Z,998.83
2017-12-29T09:02:40.423Z,998.81
2017-12-29T09:03:40.411Z,998.82
2017-12-29T09:04:40.404Z,998.82
2017-12-29T09:05:40.396Z,998.80
2017-12-29T09:06:40.411Z,998.83
2017-12-29T09:07:40.378Z,998.81
2017-12-29T09:08:40.367Z,998.88
2017-12-29T09:09:40.357Z,998.80
2017-12-29T09:10:40.346Z,998.77
2017-12-29T09:11:40.342Z,998.81
2017-12-29T09:12:40.328Z,998.84
2017-12-29T09:13:40.324Z,998.79
2017-12-29T09:14:40.315Z,998.68
2017-12-29T09:15:40.332Z,998.71
2017-12-29T09:16:40.296Z,998.68
2017-12-29T09:17:40.282Z,998.67
2017-12-29T09:18:40.278Z,998.63
2017-12-29T09:19:40.270Z,998.63
2017-12-29T09:20:40.262Z,998.64
2017-12-29T09:21:40.255Z,998.60
2017-12-29T09:22:40.243Z,998.61
2017-12-29T09:23:40.238Z,998.62
2017-12-29T09:24:40.226Z,998.56
2017-12-29T09:25:40.224Z,998.55
2017-12-29T09:26:40.215Z,998.58
2017-12-29T09:27:40.228Z,998.52
2017-12-29T09:28:40.199Z,998.59
2017-12-29T09:29:40.200Z,998.58
2017-12-29T09:30:40.188Z,998.56
2017-12-29T09:31:40.171Z,998.58
2017-12-29T09:32:40.175Z,998.58
2017-12-29T09:33:40.163Z,998.63
2017-12-29T09:34:40.153Z,998.57
2017-12-29T09:35:40.147Z,998.54
2017-12-29T09:36:40.139Z,998.55
2017-12-29T09:37:40.128Z,998.54
2017-12-29T09:38:40.125Z,998.51
2017-12-29T09:39:40.120Z,998.51
2017-12-29T09:40:40.110Z,998.49
2017-12-29T09:41:40.101Z,998.48
2017-12-29T09:42:40.096Z,998.44
2017-12-29T09:43:40.099Z,998.50
2017-12-29T09:44:40.084Z,998.46
2017-12-29T09:45:40.092Z,998.49
2017-12-29T09:46:40.068Z,998.50
2017-12-29T09:47:40.061Z,998.54
2017-12-29T09:48:40.051Z,998.48
2017-12-29T09:49:40.051Z,998.50
2017-12-29T09:50:40.052Z,998.53
2017-12-29T09:51:40.035Z,998.47
2017-12-29T09:52:40.028Z,998.53
2017-12-29T09:53:40.021Z,998.47
2017-12-29T09:54:40.013Z,998.51
2017-12-29T09:55:40.007Z,998.48
2017-12-29T09:56:40.002Z,998.37
2017-12-29T09:57:39.996Z,998.45
2017-12-29T09:58:39.993Z,998.36
2017-12-29T09:59:39.983Z,998.39
2017-12-29T10:00:39.972Z,998.39
2017-12-29T10:01:40.029Z,998.43
2017-12-29T10:02:39.960Z,998.42
2017-12-29T10:03:39.953Z,998.37
2017-12-29T10:04:39.951Z,998.32
2017-12-29T10:05:39.952Z,998.27
2017-12-29T10:06:39.935Z,998.41
2017-12-29T10:07:39.926Z,998.33
2017-12-29T10:08:39.921Z,998.27
2017-12-29T10:09:39.914Z,998.21
2017-12-29T10:10:39.908Z,998.25
2017-12-29T10:11:39.896Z,998.27
2017-12-29T10:12:39.895Z,998.18
2017-12-29T10:13:39.887Z,998.15
2017-12-29T10:14:39.878Z,998.15
2017-12-29T10:15:39.874Z,998.17
2017-12-29T10:16:39.866Z,998.01
2017-12-29T10:17:39.856Z,998.07
2017-12-29T10:18:39.851Z,998.06
2017-12-29T10:19:39.847Z,998.07
2017-12-29T10:20:39.853Z,997.99
2017-12-29T10:21:39.830Z,998.04
2017-12-29T10:22:39.827Z,998.00
2017-12-29T10:23:39.818Z,997.99
2017-12-29T10:24:39.812Z,997.94
2017-12-29T10:25:39.808Z,998.01
2017-12-29T10:26:39.795Z,997.98
2017-12-29T10:27:39.795Z,998.06
2017-12-29T10:28:39.784Z,998.02
2017-12-29T10:29:39.792Z,997.96
2017-12-29T10:30:39.777Z,997.88
2017-12-29T10:31:39.778Z,997.92
2017-12-29T10:32:39.760Z,997.87
2017-12-29T10:33:39.762Z,997.83
2017-12-29T10:34:39.747Z,997.84
2017-12-29T10:35:39.742Z,997.79
2017-12-29T10:36:39.743Z,997.78
2017-12-29T10:37:39.767Z,997.78
2017-12-29T10:38:39.729Z,997.81
2017-12-29T10:39:39.719Z,997.74
2017-12-29T10:40:39.713Z,997.77
2017-12-29T10:41:39.728Z,997.76
2017-12-29T10:42:39.695Z,997.75
2017-12-29T10:43:39.690Z,997.76
2017-12-29T10:44:39.687Z,997.82
2017-12-29T10:45:39.683Z,997.77
2017-12-29T10:46:39.674Z,997.75
2017-12-29T10:47:39.666Z,997.71
2017-12-29T10:48:39.660Z,997.81
2017-12-29T10:49:39.656Z,997.69
2017-12-29T10:50:39.645Z,997.65
2017-12-29T10:51:39.639Z,997.71
2017-12-29T10:52:39.634Z,997.74
2017-12-29T10:53:39.627Z,997.69
2017-12-29T10:54:39.677Z,997.71
2017-12-29T10:55:39.616Z,997.64
2017-12-29T10:56:39.611Z,997.61
2017-12-29T10:57:39.600Z,997.57
2017-12-29T10:58:39.592Z,997.59
2017-12-29T10:59:39.586Z,997.65
2017-12-29T11:00:39.581Z,997.68
2017-12-29T11:01:39.572Z,997.53
2017-12-29T11:02:39.568Z,997.63
2017-12-29T11:03:39.557Z,997.55
2017-12-29T11:04:39.551Z,997.53
2017-12-29T11:05:39.545Z,997.62
2017-12-29T11:06:39.535Z,997.58
2017-12-29T11:07:39.531Z,997.52
2017-12-29T11:08:39.527Z,997.53
2017-12-29T11:09:39.515Z,997.52
2017-12-29T11:10:39.506Z,997.49
2017-12-29T11:11:39.498Z,997.49
2017-12-29T11:12:39.514Z,997.57
2017-12-29T11:13:39.486Z,997.44
2017-12-29T11:14:39.479Z,997.51
2017-12-29T11:15:39.473Z,997.39
2017-12-29T11:16:39.462Z,997.37
2017-12-29T11:17:39.461Z,997.51
2017-12-29T11:18:39.462Z,997.38
2017-12-29T11:19:39.442Z,997.41
2017-12-29T11:20:39.436Z,997.45
2017-12-29T11:21:39.430Z,997.33
2017-12-29T11:22:39.423Z,997.39
2017-12-29T11:23:39.413Z,997.37
2017-12-29T11:24:39.409Z,997.43
2017-12-29T11:25:39.405Z,997.29
2017-12-29T11:26:39.396Z,997.29
2017-12-29T11:27:39.388Z,997.32
2017-12-29T11:28:39.395Z,997.25
2017-12-29T11:29:39.381Z,997.22
2017-12-29T11:30:39.369Z,997.27
2017-12-29T11:31:39.362Z,997.20
2017-12-29T11:32:39.367Z,997.20
2017-12-29T11:33:39.420Z,997.16
2017-12-29T11:34:39.344Z,997.14
2017-12-29T11:35:39.340Z,996.92
2017-12-29T11:36:39.329Z,997.14
2017-12-29T11:37:39.328Z,997.07
2017-12-29T11:38:39.314Z,997.07
2017-12-29T11:39:39.313Z,996.95
2017-12-29T11:40:39.313Z,997.00
2017-12-29T11:41:39.299Z,996.98
2017-12-29T11:42:39.293Z,996.91
2017-12-29T11:43:39.286Z,996.81
2017-12-29T11:44:39.283Z,996.81
2017-12-29T11:45:39.273Z,996.86
2017-12-29T11:46:39.267Z,996.72
2017-12-29T11:47:39.263Z,996.77
2017-12-29T11:48:39.253Z,996.82
2017-12-29T11:49:39.246Z,996.73
2017-12-29T11:50:39.259Z,996.79
2017-12-29T11:51:39.232Z,996.62
2017-12-29T11:52:39.230Z,996.68
2017-12-29T11:53:39.223Z,996.60
2017-12-29T11:54:39.209Z,996.66
2017-12-29T11:55:39.206Z,996.72
2017-12-29T11:56:39.195Z,996.49
2017-12-29T11:57:39.188Z,996.47
2017-12-29T11:58:39.177Z,996.39
2017-12-29T11:59:39.167Z,996.45
2017-12-29T12:00:39.166Z,996.33
2017-12-29T12:01:39.156Z,996.31
2017-12-29T12:02:39.148Z,996.31
2017-12-29T12:03:39.141Z,996.20
2017-12-29T12:04:39.136Z,996.25
2017-12-29T12:05:39.165Z,996.22
2017-12-29T12:06:39.115Z,996.28
2017-12-29T12:07:39.148Z,996.22
2017-12-29T12:08:39.098Z,996.13
2017-12-29T12:09:39.102Z,996.09
2017-12-29T12:10:39.082Z,996.10
2017-12-29T12:11:39.073Z,996.01
2017-12-29T12:12:39.062Z,996.02
2017-12-29T12:13:39.055Z,995.92
2017-12-29T12:14:39.065Z,995.99
2017-12-29T12:15:39.048Z,995.99
2017-12-29T12:16:39.029Z,995.95
2017-12-29T12:17:39.042Z,995.93
2017-12-29T12:18:39.010Z,995.98
2017-12-29T12:19:39.001Z,995.94
2017-12-29T12:20:38.989Z,995.88
2017-12-29T12:21:38.980Z,995.89
2017-12-29T12:22:38.974Z,995.85
2017-12-29T12:23:38.964Z,995.89
2017-12-29T12:24:38.956Z,995.82
2017-12-29T12:25:38.947Z,995.82
2017-12-29T12:26:38.937Z,995.89
2017-12-29T12:27:38.926Z,995.91
2017-12-29T12:28:38.918Z,995.84